Time;durP1;ratioP1;P1;durP2;ratioP2;P2;SDS_P1;SDS_P2;PMS_P1;PMS_P2;Temp;Humidity;BMP_temperature;BMP_pressure;BME280_temperature;BME280_humidity;BME280_pressure;Samples;Min_cycle;Max_cycle;Signal;HPM_P1;HPM_P2
2024/04/16 00:00:43;;;;;;;19.85;3.30;;;;;;;5.64;100.00;100150.47;5347581;26;20011;-71
2024/04/16 00:03:08;;;;;;;19.65;3.53;;;;;;;5.58;100.00;100140.78;5340315;26;20383;-71
2024/04/16 00:05:34;;;;;;;18.38;3.10;;;;;;;5.61;100.00;100141.66;5347796;26;20028;-71
2024/04/16 00:07:59;;;;;;;17.95;3.10;;;;;;;5.62;100.00;100131.22;5347435;26;19993;-70
2024/04/16 00:10:25;;;;;;;17.20;3.10;;;;;;;5.57;100.00;100125.88;5347122;26;19996;-71
2024/04/16 00:12:50;;;;;;;15.40;3.15;;;;;;;5.65;100.00;100128.63;5347228;26;20007;-71
2024/04/16 00:15:16;;;;;;;17.45;3.25;;;;;;;5.64;100.00;100131.25;5346475;26;20079;-71
2024/04/16 00:17:43;;;;;;;16.70;3.10;;;;;;;5.61;100.00;100124.19;5346521;26;20003;-72
2024/04/16 00:20:09;;;;;;;20.15;3.35;;;;;;;5.59;100.00;100118.03;5340742;26;20437;-72
2024/04/16 00:22:34;;;;;;;16.80;3.00;;;;;;;5.56;100.00;100116.28;5346763;26;19993;-71
2024/04/16 00:25:00;;;;;;;15.63;3.15;;;;;;;5.52;100.00;100110.94;5347169;26;20001;-66
2024/04/16 00:27:25;;;;;;;15.02;2.83;;;;;;;5.56;100.00;100121.53;5347381;26;20043;-68
2024/04/16 00:29:51;;;;;;;19.55;3.10;;;;;;;5.58;100.00;100121.53;5346946;26;20011;-66
2024/04/16 00:32:16;;;;;;;18.27;3.30;;;;;;;5.58;100.00;100129.41;5346944;26;20066;-66
2024/04/16 00:34:41;;;;;;;15.95;3.03;;;;;;;5.46;100.00;100137.09;5346746;26;20408;-66
2024/04/16 00:37:07;;;;;;;16.88;3.25;;;;;;;5.13;100.00;100109.56;5347097;26;20003;-67
2024/04/16 00:39:32;;;;;;;18.70;3.40;;;;;;;4.72;100.00;100101.06;5347155;26;20000;-66
2024/04/16 00:41:57;;;;;;;16.67;3.33;;;;;;;4.57;100.00;100110.41;5346991;26;20424;-67
2024/04/16 00:44:23;;;;;;;17.63;3.55;;;;;;;4.33;100.00;100111.75;5347003;26;20012;-66
2024/04/16 00:46:49;;;;;;;17.33;3.60;;;;;;;4.23;100.00;100109.81;5346989;26;19997;-66
2024/04/16 00:49:15;;;;;;;18.58;4.05;;;;;;;4.12;100.00;100101.75;5346755;26;20005;-66
2024/04/16 00:51:40;;;;;;;17.42;3.85;;;;;;;4.06;100.00;100091.19;5346885;26;20005;-68
2024/04/16 00:54:06;;;;;;;19.50;3.97;;;;;;;3.96;100.00;100084.88;5346728;26;19997;-68
2024/04/16 00:56:35;;;;;;;18.42;3.78;;;;;;;3.94;100.00;100073.53;5346544;26;19993;-69
2024/04/16 00:59:01;;;;;;;16.95;3.90;;;;;;;3.92;100.00;100072.63;5346584;26;20071;-66
2024/04/16 01:01:27;;;;;;;16.52;3.88;;;;;;;3.92;100.00;100064.78;5346587;26;20032;-66
2024/04/16 01:03:52;;;;;;;15.82;3.40;;;;;;;3.90;100.00;100075.19;5346506;26;20385;-66
2024/04/16 01:06:18;;;;;;;19.00;3.70;;;;;;;3.91;100.00;100069.09;5346551;26;19996;-66
2024/04/16 01:08:43;;;;;;;15.82;3.42;;;;;;;3.88;100.00;100076.91;5346785;26;19997;-66
2024/04/16 01:11:09;;;;;;;20.48;3.90;;;;;;;3.86;100.00;100072.50;5346395;26;20004;-66
2024/04/16 01:13:34;;;;;;;16.17;3.30;;;;;;;3.86;100.00;100072.50;5346417;26;20070;-66
2024/04/16 01:15:59;;;;;;;15.77;3.40;;;;;;;3.87;100.00;100082.09;5346558;26;19993;-67
2024/04/16 01:18:24;;;;;;;15.65;3.30;;;;;;;3.90;100.00;100071.69;5345964;26;20070;-66
2024/04/16 01:20:50;;;;;;;20.73;4.10;;;;;;;3.73;100.00;100073.97;5346101;26;20003;-66
2024/04/16 01:23:15;;;;;;;18.92;3.88;;;;;;;3.69;100.00;100073.03;5346654;26;20008;-66
2024/04/16 01:25:42;;;;;;;19.80;4.28;;;;;;;3.62;100.00;100097.28;5345228;26;20000;-78
2024/04/16 01:28:07;;;;;;;20.83;4.22;;;;;;;3.63;100.00;100083.38;5349288;26;20459;-78
2024/04/16 01:30:32;;;;;;;20.08;4.40;;;;;;;3.62;100.00;100079.00;5349810;26;20007;-75
2024/04/16 01:32:58;;;;;;;21.33;4.10;;;;;;;3.62;100.00;100092.06;5349849;26;20001;-69
2024/04/16 01:35:23;;;;;;;20.40;5.13;;;;;;;3.61;100.00;100104.25;5349559;26;20325;-69
2024/04/16 01:37:49;;;;;;;21.63;5.72;;;;;;;3.49;100.00;100088.31;5349346;26;20348;-77
2024/04/16 01:40:15;;;;;;;20.45;5.72;;;;;;;3.41;100.00;100090.78;5347464;26;19997;-72
2024/04/16 01:42:40;;;;;;;21.85;6.50;;;;;;;3.37;100.00;100088.94;5349623;26;20015;-66
2024/04/16 01:45:06;;;;;;;21.17;6.55;;;;;;;3.42;100.00;100104.72;5349520;26;19996;-67
2024/04/16 01:47:31;;;;;;;21.63;6.55;;;;;;;3.45;100.00;100076.94;5349146;26;20004;-69
2024/04/16 01:49:56;;;;;;;21.83;6.65;;;;;;;3.45;100.00;100061.25;5349614;26;20004;-66
2024/04/16 01:52:22;;;;;;;22.10;7.50;;;;;;;3.46;100.00;100063.00;5347595;26;20432;-67
2024/04/16 01:54:47;;;;;;;22.02;7.50;;;;;;;3.47;100.00;100059.53;5349116;26;20074;-66
2024/04/16 01:57:12;;;;;;;23.08;7.72;;;;;;;3.48;100.00;100049.94;5349073;26;20024;-68
2024/04/16 01:59:38;;;;;;;23.10;8.65;;;;;;;3.45;100.00;100055.13;5349026;26;20008;-66
2024/04/16 02:02:03;;;;;;;23.20;9.20;;;;;;;3.42;100.00;100060.28;5349577;26;20012;-68
2024/04/16 02:04:29;;;;;;;22.10;8.60;;;;;;;3.42;100.00;100060.28;5362065;26;20070;-66
2024/04/16 02:06:54;;;;;;;23.10;8.73;;;;;;;3.36;100.00;100055.81;5348753;26;19996;-67
2024/04/16 02:09:20;;;;;;;23.98;9.90;;;;;;;3.36;100.00;100049.72;5349208;26;20392;-66
2024/04/16 02:11:45;;;;;;;22.83;9.60;;;;;;;3.37;100.00;100041.91;5349077;26;20009;-67
2024/04/16 02:14:10;;;;;;;25.75;10.23;;;;;;;3.35;100.00;100054.06;5348872;26;20005;-69
2024/04/16 02:16:36;;;;;;;25.73;9.45;;;;;;;3.38;100.00;100048.00;5348960;26;20347;-70
2024/04/16 02:19:01;;;;;;;24.27;9.60;;;;;;;3.36;100.00;100042.75;5348663;26;20008;-66
2024/04/16 02:21:27;;;;;;;25.20;9.00;;;;;;;3.40;100.00;100041.09;5348605;26;20000;-66
2024/04/16 02:23:52;;;;;;;24.35;8.75;;;;;;;3.38;100.00;100038.44;5349228;26;20403;-66
2024/04/16 02:26:17;;;;;;;24.58;8.85;;;;;;;3.38;100.00;100038.44;5348776;26;19997;-67
2024/04/16 02:28:43;;;;;;;25.50;8.88;;;;;;;3.38;100.00;100027.09;5349146;26;20008;-66
2024/04/16 02:31:08;;;;;;;23.55;8.48;;;;;;;3.43;100.00;100025.47;5349004;26;20000;-67
2024/04/16 02:33:34;;;;;;;23.88;8.27;;;;;;;3.44;100.00;100019.41;5348495;26;20015;-67
2024/04/16 02:36:00;;;;;;;24.05;8.40;;;;;;;3.41;100.00;100021.97;5348711;26;19997;-67
2024/04/16 02:38:26;;;;;;;25.25;9.25;;;;;;;3.39;100.00;100021.91;5347604;26;19993;-67
2024/04/16 02:40:51;;;;;;;23.48;9.43;;;;;;;3.44;100.00;100033.34;5348476;26;20012;-67
2024/04/16 02:43:17;;;;;;;24.25;9.32;;;;;;;3.47;100.00;100027.31;5348562;26;19997;-67
2024/04/16 02:45:42;;;;;;;23.83;9.13;;;;;;;3.49;100.00;100023.88;5348369;26;20070;-68
2024/04/16 02:48:07;;;;;;;24.30;9.23;;;;;;;3.52;100.00;100023.03;5348427;26;19997;-67
2024/04/16 02:50:33;;;;;;;22.77;9.27;;;;;;;3.54;100.00;100036.13;5346778;26;20000;-66
2024/04/16 02:52:58;;;;;;;23.90;8.75;;;;;;;3.53;100.00;100018.72;5348632;26;19996;-69
2024/04/16 02:55:23;;;;;;;22.35;8.05;;;;;;;3.55;100.00;100007.41;5348188;26;20001;-70
2024/04/16 02:57:49;;;;;;;21.20;7.88;;;;;;;3.57;100.00;100002.22;5348617;26;20004;-67
2024/04/16 03:00:14;;;;;;;23.15;7.78;;;;;;;3.57;100.00;99996.97;5346647;26;20008;-68
2024/04/16 03:02:40;;;;;;;22.90;7.93;;;;;;;3.56;100.00;99996.13;5348638;26;20000;-66
2024/04/16 03:05:05;;;;;;;23.98;8.40;;;;;;;3.58;100.00;100003.97;5348470;26;20399;-66
2024/04/16 03:07:31;;;;;;;22.60;8.23;;;;;;;3.58;100.00;99996.13;5346388;26;20440;-67
2024/04/16 03:09:56;;;;;;;22.85;8.43;;;;;;;3.59;100.00;99990.06;5348672;26;20005;-66
2024/04/16 03:12:22;;;;;;;22.15;7.85;;;;;;;3.59;100.00;99983.09;5346338;26;20445;-68
2024/04/16 03:14:50;;;;;;;23.83;8.75;;;;;;;3.59;100.00;99990.94;5390660;26;20013;-70
2024/04/16 03:17:16;;;;;;;23.23;7.82;;;;;;;3.61;100.00;99996.19;5348187;26;19993;-68
2024/04/16 03:19:41;;;;;;;23.23;8.27;;;;;;;3.68;100.00;100003.31;5391297;26;20009;-76
2024/04/16 03:22:06;;;;;;;23.60;8.20;;;;;;;3.66;100.00;99998.06;5348898;26;19996;-76
2024/04/16 03:24:31;;;;;;;22.92;7.55;;;;;;;3.70;100.00;100005.94;5348518;26;20016;-77
2024/04/16 03:26:57;;;;;;;24.45;7.78;;;;;;;3.67;100.00;99993.72;5348694;26;20008;-75
2024/04/16 03:29:22;;;;;;;23.55;7.47;;;;;;;3.64;100.00;99993.63;5348272;26;20001;-72
2024/04/16 03:31:47;;;;;;;23.05;7.30;;;;;;;3.65;100.00;99991.06;5390495;26;20083;-67
2024/04/16 03:34:13;;;;;;;23.45;7.45;;;;;;;3.63;100.00;99987.53;5347788;26;20387;-69
2024/04/16 03:36:38;;;;;;;24.02;6.80;;;;;;;3.66;100.00;99981.50;5347864;26;20013;-74
2024/04/16 03:39:03;;;;;;;21.67;6.95;;;;;;;3.62;100.00;99983.16;5390896;26;20079;-68
2024/04/16 03:41:29;;;;;;;25.70;7.20;;;;;;;3.60;100.00;99981.38;5347966;26;20424;-73
2024/04/16 03:43:54;;;;;;;23.23;7.30;;;;;;;3.57;100.00;99968.22;5390731;26;20001;-75
2024/04/16 03:46:19;;;;;;;22.05;6.28;;;;;;;3.59;100.00;99966.56;5347639;26;20332;-69
2024/04/16 03:48:45;;;;;;;21.75;6.38;;;;;;;3.62;100.00;99964.00;5347585;26;19997;-73
2024/04/16 03:51:10;;;;;;;22.48;6.68;;;;;;;3.61;100.00;99951.75;5347851;26;20336;-69
2024/04/16 03:53:35;;;;;;;24.95;6.93;;;;;;;3.58;100.00;99960.44;5347921;26;20002;-67
2024/04/16 03:56:01;;;;;;;23.63;7.55;;;;;;;3.57;100.00;99960.41;5347802;26;19993;-70
2024/04/16 03:58:27;;;;;;;22.52;7.70;;;;;;;3.55;100.00;99954.28;5347477;26;20001;-69
2024/04/16 04:01:07;;;;;;;24.40;8.55;;;;;;;3.49;100.00;99948.09;5347383;26;19997;-73
2024/04/16 04:03:33;;;;;;;24.20;8.93;;;;;;;3.47;100.00;99957.63;5347762;26;19992;-68
2024/04/16 04:05:59;;;;;;;24.65;9.10;;;;;;;3.50;100.00;99943.75;5347708;26;20082;-71
2024/04/16 04:08:26;;;;;;;23.98;9.60;;;;;;;3.54;100.00;99928.97;5347513;26;20444;-68
2024/04/16 04:10:51;;;;;;;25.50;9.63;;;;;;;3.58;100.00;99928.19;5347500;26;20007;-71
2024/04/16 04:13:16;;;;;;;23.42;9.15;;;;;;;3.58;100.00;99936.03;5347327;26;19993;-69
2024/04/16 04:15:42;;;;;;;24.88;9.90;;;;;;;3.61;100.00;99917.78;5347757;26;20001;-72
2024/04/16 04:18:07;;;;;;;25.25;9.55;;;;;;;3.65;100.00;99915.25;5347436;26;20071;-73
2024/04/16 04:20:33;;;;;;;25.98;9.98;;;;;;;3.65;100.00;99914.38;5345503;26;20007;-69
2024/04/16 04:22:58;;;;;;;24.73;9.98;;;;;;;3.70;100.00;99919.69;5347077;26;20044;-72
2024/04/16 04:25:24;;;;;;;24.45;9.38;;;;;;;3.72;100.00;99918.84;5346926;26;20000;-70
2024/04/16 04:27:51;;;;;;;24.00;9.57;;;;;;;3.74;100.00;99911.94;5347623;26;19997;-70
2024/04/16 04:30:16;;;;;;;25.10;9.05;;;;;;;3.75;100.00;99908.44;5347171;26;20008;-71
2024/04/16 04:32:48;;;;;;;24.48;8.48;;;;;;;3.75;100.00;99918.03;5347162;26;20024;-70
2024/04/16 04:35:13;;;;;;;23.50;7.70;;;;;;;3.73;100.00;99928.47;5340711;26;20001;-70
2024/04/16 04:37:39;;;;;;;22.85;8.00;;;;;;;3.76;100.00;99918.06;5347162;26;19993;-71
2024/04/16 04:40:04;;;;;;;23.60;8.27;;;;;;;3.76;100.00;99915.44;5346828;26;19997;-72
2024/04/16 04:42:29;;;;;;;23.48;7.63;;;;;;;3.81;100.00;99918.13;5389464;26;20058;-72
2024/04/16 04:44:55;;;;;;;24.80;7.75;;;;;;;3.82;100.00;99910.31;5346982;26;20012;-73
2024/04/16 04:47:20;;;;;;;24.23;7.90;;;;;;;3.82;100.00;99909.44;5346924;26;19993;-69
2024/04/16 04:49:46;;;;;;;25.45;8.02;;;;;;;3.88;100.00;99898.22;5346919;26;19996;-68
2024/04/16 04:52:12;;;;;;;24.00;7.80;;;;;;;3.88;100.00;99891.25;5346711;26;19993;-71
2024/04/16 04:54:37;;;;;;;24.02;8.00;;;;;;;3.88;100.00;99906.06;5344946;26;20072;-69
2024/04/16 04:57:02;;;;;;;25.48;8.52;;;;;;;3.87;100.00;99906.91;5346821;26;20008;-68
2024/04/16 04:59:28;;;;;;;23.92;8.63;;;;;;;3.84;100.00;99898.16;5346497;26;20452;-68
2024/04/16 05:01:54;;;;;;;25.15;8.45;;;;;;;3.86;100.00;99911.28;5344111;26;20437;-69
2024/04/16 05:04:19;;;;;;;25.13;9.07;;;;;;;3.87;100.00;99897.31;5345029;26;20000;-71
2024/04/16 05:06:44;;;;;;;24.27;9.02;;;;;;;3.87;100.00;99897.31;5346524;26;20008;-72
2024/04/16 05:09:10;;;;;;;24.92;9.45;;;;;;;3.89;100.00;99887.78;5383359;26;20075;-73
2024/04/16 05:11:35;;;;;;;25.48;10.20;;;;;;;3.87;100.00;99888.59;5345402;26;20066;-69
2024/04/16 05:14:00;;;;;;;24.95;10.05;;;;;;;3.86;100.00;99892.97;5346414;26;20448;-70
2024/04/16 05:16:26;;;;;;;25.60;9.50;;;;;;;3.91;100.00;99890.41;5346605;26;20328;-68
2024/04/16 05:18:51;;;;;;;21.35;7.03;;;;;;;3.87;100.00;99849.38;5346827;26;20024;-77
2024/04/16 05:21:16;;;;;;;20.10;6.35;;;;;;;3.87;100.00;99871.16;5346752;26;20008;-76
2024/04/16 05:23:44;;;;;;;19.77;5.32;;;;;;;3.84;100.00;99856.34;5347423;26;20005;-77
2024/04/16 05:26:09;;;;;;;19.73;5.78;;;;;;;3.87;100.00;99872.91;5347324;26;19997;-77
2024/04/16 05:28:35;;;;;;;19.88;5.35;;;;;;;3.81;100.00;99861.50;5346892;26;20016;-75
2024/04/16 05:31:00;;;;;;;17.52;4.28;;;;;;;3.82;100.00;99859.78;5347235;26;20328;-75
2024/04/16 05:33:26;;;;;;;14.30;3.35;;;;;;;3.81;100.00;99847.53;5346593;26;20443;-73
2024/04/16 05:35:52;;;;;;;14.20;3.40;;;;;;;3.81;100.00;99874.56;5346120;26;20004;-68
2024/04/16 05:38:17;;;;;;;17.55;4.18;;;;;;;3.82;100.00;99838.84;5346526;26;20000;-76
2024/04/16 05:40:43;;;;;;;16.58;4.38;;;;;;;3.88;100.00;99836.31;5346076;26;19997;-73
2024/04/16 05:43:08;;;;;;;18.85;4.60;;;;;;;3.91;100.00;99839.00;5346516;26;20020;-74
2024/04/16 05:45:33;;;;;;;17.27;4.13;;;;;;;3.92;100.00;99832.03;5346353;26;20070;-68
2024/04/16 05:47:59;;;;;;;16.77;4.00;;;;;;;3.97;100.00;99822.50;5346407;26;20078;-70
2024/04/16 05:50:24;;;;;;;15.50;4.18;;;;;;;3.95;100.00;99837.31;5346188;26;20067;-70
2024/04/16 05:52:49;;;;;;;14.40;3.95;;;;;;;3.97;100.00;99838.19;5346251;26;20013;-74
2024/04/16 05:55:15;;;;;;;16.73;4.05;;;;;;;3.99;100.00;99833.88;5346270;26;19997;-69
2024/04/16 05:57:40;;;;;;;16.20;4.10;;;;;;;4.02;100.00;99854.84;5345912;26;19997;-72
2024/04/16 06:00:06;;;;;;;14.05;4.00;;;;;;;4.15;100.00;99851.56;5345628;26;19993;-73
2024/04/16 06:02:32;;;;;;;16.40;4.20;;;;;;;4.18;100.00;99843.75;5345935;26;20000;-68
2024/04/16 06:04:57;;;;;;;17.10;4.70;;;;;;;4.26;100.00;99871.78;5345685;26;19999;-71
2024/04/16 06:07:22;;;;;;;19.73;5.00;;;;;;;4.30;100.00;99848.28;5345839;26;20083;-73
2024/04/16 06:09:48;;;;;;;18.90;5.10;;;;;;;4.34;100.00;99862.31;5345960;26;20070;-76
2024/04/16 06:12:13;;;;;;;19.67;5.38;;;;;;;4.40;100.00;99858.84;5346131;26;20009;-75
2024/04/16 06:14:39;;;;;;;19.30;5.75;;;;;;;4.46;100.00;99865.06;5347190;26;20009;-76
2024/04/16 06:17:04;;;;;;;20.48;6.15;;;;;;;4.58;100.00;99860.88;5348983;26;20444;-73
2024/04/16 06:19:29;;;;;;;21.88;6.10;;;;;;;4.68;100.00;99860.13;5349355;26;20004;-76
2024/04/16 06:21:55;;;;;;;22.27;6.70;;;;;;;4.80;100.00;99865.50;5349181;26;21025;-75
2024/04/16 06:24:20;;;;;;;23.13;6.20;;;;;;;4.94;100.00;99875.28;5349130;26;20432;-72
2024/04/16 06:26:45;;;;;;;22.77;5.97;;;;;;;5.02;100.00;99863.13;5349524;26;20440;-74
2024/04/16 06:29:11;;;;;;;23.20;6.13;;;;;;;5.17;100.00;99872.91;5349093;26;19997;-76
2024/04/16 06:31:36;;;;;;;24.83;6.65;;;;;;;5.27;100.00;99868.63;5349360;26;20001;-68
2024/04/16 06:34:01;;;;;;;24.80;6.50;;;;;;;5.39;100.00;99860.91;5349066;26;19993;-68
2024/04/16 06:36:27;;;;;;;24.17;6.80;;;;;;;5.50;100.00;99877.59;5347079;26;20001;-72
2024/04/16 06:38:52;;;;;;;23.90;6.43;;;;;;;5.66;100.00;99868.13;5380484;26;20009;-75
2024/04/16 06:41:17;;;;;;;29.38;7.65;;;;;;;5.75;100.00;99870.84;5348157;26;19996;-74
2024/04/16 06:43:43;;;;;;;24.63;6.40;;;;;;;5.89;100.00;99880.59;5348916;26;19993;-72
2024/04/16 06:46:08;;;;;;;25.35;6.75;;;;;;;5.98;100.00;99866.69;5347214;26;20025;-77
2024/04/16 06:48:33;;;;;;;26.65;7.03;;;;;;;6.03;100.00;99865.88;5348405;26;20004;-74
2024/04/16 06:50:59;;;;;;;25.00;6.50;;;;;;;6.06;100.00;99868.50;5348979;26;20074;-75
2024/04/16 06:53:25;;;;;;;26.50;6.93;;;;;;;6.13;100.00;99877.31;5348822;26;19997;-72
2024/04/16 06:56:06;;;;;;;25.95;6.38;;;;;;;6.19;100.00;99874.72;5348775;26;20344;-72
2024/04/16 06:58:32;;;;;;;26.40;6.00;;;;;;;6.27;100.00;99861.63;5345111;26;19993;-77
2024/04/16 07:00:57;;;;;;;24.50;5.85;;;;;;;6.42;100.00;99882.75;5348639;26;20001;-75
2024/04/16 07:03:23;;;;;;;22.90;4.88;;;;;;;6.47;100.00;99868.78;5349143;26;19997;-77
2024/04/16 07:05:49;;;;;;;24.63;5.35;;;;;;;6.57;100.00;99884.56;5348762;26;19997;-78
2024/04/16 07:08:15;;;;;;;20.42;4.63;;;;;;;6.69;100.00;99891.63;5348912;26;19993;-77
2024/04/16 07:10:41;;;;;;;22.48;4.63;;;;;;;6.80;100.00;99899.56;5348722;26;20444;-68
2024/04/16 07:13:06;;;;;;;20.27;4.25;;;;;;;6.84;100.00;99892.56;5348422;26;20009;-76
2024/04/16 07:15:33;;;;;;;24.00;4.50;;;;;;;6.81;100.00;99911.81;5348656;26;20005;-76
2024/04/16 07:17:58;;;;;;;21.92;4.05;;;;;;;6.81;100.00;99896.06;5348567;26;20436;-76
2024/04/16 07:20:24;;;;;;;20.90;4.13;;;;;;;6.81;100.00;99919.69;5348235;26;20012;-76
2024/04/16 07:22:49;;;;;;;17.42;3.17;;;;;;;6.79;100.00;99921.47;5348395;26;20044;-75
2024/04/16 07:25:14;;;;;;;20.25;3.80;;;;;;;6.69;100.00;99915.28;5348163;26;20001;-71
2024/04/16 07:27:40;;;;;;;20.60;4.13;;;;;;;6.61;100.00;99927.47;5348491;26;20003;-75
2024/04/16 07:30:07;;;;;;;20.63;3.78;;;;;;;6.61;100.00;99931.00;5348656;26;20351;-72
2024/04/16 07:32:33;;;;;;;20.08;4.00;;;;;;;6.73;100.00;99932.81;5348035;26;20012;-73
2024/04/16 07:34:58;;;;;;;19.55;4.05;;;;;;;6.80;100.00;99917.94;5347962;26;19997;-71
2024/04/16 07:37:23;;;;;;;20.58;3.92;;;;;;;6.96;100.00;99932.94;5346072;26;20005;-71
2024/04/16 07:39:49;;;;;;;19.35;3.85;;;;;;;7.07;100.00;99934.72;5347652;26;20005;-69
2024/04/16 07:42:14;;;;;;;20.92;3.80;;;;;;;7.04;100.00;99929.47;5348060;26;20296;-73
2024/04/16 07:44:42;;;;;;;17.02;3.30;;;;;;;6.92;100.00;99920.63;5347540;26;20015;-70
2024/04/16 07:47:08;;;;;;;18.83;3.38;;;;;;;6.84;100.00;99921.47;5390141;26;20475;-73
2024/04/16 07:49:33;;;;;;;17.15;3.15;;;;;;;6.97;100.00;99941.69;5347629;26;20011;-73
2024/04/16 07:51:59;;;;;;;16.45;3.08;;;;;;;7.11;100.00;99911.06;5347700;26;19996;-73
2024/04/16 07:54:24;;;;;;;18.00;3.50;;;;;;;7.39;100.00;99944.47;5347462;26;20013;-72
2024/04/16 07:56:52;;;;;;;19.55;3.20;;;;;;;7.51;100.00;99918.19;5347930;26;19997;-74
2024/04/16 07:59:18;;;;;;;16.92;3.00;;;;;;;7.56;100.00;99945.41;5340588;26;19997;-73
2024/04/16 08:01:44;;;;;;;17.17;3.30;;;;;;;7.45;100.00;99950.63;5347335;26;20033;-75
2024/04/16 08:04:09;;;;;;;17.60;3.30;;;;;;;7.55;100.00;99937.50;5347517;26;20005;-73
2024/04/16 08:06:34;;;;;;;16.42;3.00;;;;;;;7.75;100.00;99948.94;5347698;26;19997;-74
2024/04/16 08:09:00;;;;;;;18.17;3.15;;;;;;;8.02;100.00;99940.22;5345509;26;20070;-72
2024/04/16 08:11:26;;;;;;;17.80;3.40;;;;;;;8.23;100.00;99948.06;5345876;26;20005;-71
2024/04/16 08:13:53;;;;;;;17.60;3.00;;;;;;;8.24;100.00;99944.56;5347246;26;20008;-71
2024/04/16 08:16:18;;;;;;;17.85;3.20;;;;;;;8.28;100.00;99947.19;5339028;26;20074;-72
2024/04/16 08:18:44;;;;;;;15.63;3.08;;;;;;;8.19;100.00;99963.00;5347398;26;20005;-73
2024/04/16 08:21:09;;;;;;;19.42;3.30;;;;;;;8.20;100.00;99975.31;5347369;26;20433;-69
2024/04/16 08:23:35;;;;;;;17.30;3.20;;;;;;;8.19;100.00;99955.13;5346801;26;20075;-74
2024/04/16 08:26:05;;;;;;;16.60;2.85;;;;;;;8.17;100.00;99956.88;5347517;26;20005;-72
2024/04/16 08:28:31;;;;;;;16.23;2.50;;;;;;;8.60;100.00;99954.22;5347155;26;19997;-73
2024/04/16 08:31:01;;;;;;;16.40;2.58;;;;;;;8.65;100.00;99954.22;5346999;26;20001;-74
2024/04/16 08:33:26;;;;;;;18.08;2.80;;;;;;;8.53;100.00;99953.38;5347034;26;20020;-73
2024/04/16 08:35:52;;;;;;;15.30;2.90;;;;;;;8.47;100.00;99971.78;5346825;26;20008;-73
2024/04/16 08:38:18;;;;;;;16.98;2.95;;;;;;;8.51;100.00;99975.31;5345631;26;19997;-69
2024/04/16 08:40:45;;;;;;;17.40;2.95;;;;;;;8.52;100.00;99987.63;5347122;26;19997;-69
2024/04/16 08:43:11;;;;;;;14.50;3.00;;;;;;;8.42;100.00;99991.09;5347131;26;19997;-70
2024/04/16 08:45:37;;;;;;;16.55;2.90;;;;;;;8.25;100.00;99984.06;5344952;26;20066;-72
2024/04/16 08:48:04;;;;;;;15.82;2.80;;;;;;;8.16;100.00;99978.81;5346937;26;20012;-73
2024/04/16 08:50:29;;;;;;;13.85;2.40;;;;;;;8.07;100.00;99952.47;5346712;26;20003;-72
2024/04/16 08:52:58;;;;;;;15.07;2.60;;;;;;;7.95;100.00;99993.72;5346969;26;19997;-70
2024/04/16 08:55:25;;;;;;;14.95;2.85;;;;;;;8.66;100.00;99988.47;5347111;26;19997;-71
2024/04/16 08:57:51;;;;;;;17.15;3.10;;;;;;;9.52;100.00;100003.16;5346617;26;20009;-70
2024/04/16 09:00:17;;;;;;;17.25;3.13;;;;;;;10.33;100.00;99989.44;5346539;26;20007;-71
2024/04/16 09:02:44;;;;;;;17.27;3.53;;;;;;;10.46;100.00;100005.19;5345336;26;20000;-70
2024/04/16 09:05:09;;;;;;;18.25;6.53;;;;;;;10.24;100.00;100016.81;5346723;26;20432;-68
2024/04/16 09:07:36;;;;;;;17.55;2.85;;;;;;;9.74;100.00;100005.66;5346364;26;20007;-69
2024/04/16 09:10:15;;;;;;;18.88;2.92;;;;;;;9.57;100.00;100019.84;5346823;26;20509;-67
2024/04/16 09:12:43;;;;;;;17.98;3.22;;;;;;;9.35;100.00;100026.97;5346611;26;20509;-67
2024/04/16 09:15:10;;;;;;;18.02;3.20;;;;;;;9.49;100.00;100033.94;5346445;26;20013;-68
2024/04/16 09:17:44;;;;;;;16.77;3.42;;;;;;;10.24;100.00;100053.78;5346624;26;20001;-68
2024/04/16 09:20:13;;;;;;;18.42;2.95;;;;;;;10.25;100.00;100047.59;5346640;26;20047;-69
2024/04/16 09:22:38;;;;;;;16.65;2.90;;;;;;;10.12;100.00;100070.59;5346059;26;20003;-70
2024/04/16 09:25:07;;;;;;;16.27;3.15;;;;;;;10.07;100.00;100046.84;5344628;26;19996;-67
2024/04/16 09:27:33;;;;;;;17.65;3.00;;;;;;;10.12;100.00;100050.34;5388618;26;19997;-68
2024/04/16 09:30:12;;;;;;;15.43;2.90;;;;;;;10.14;100.00;100060.03;5315681;26;20012;-68
2024/04/16 09:32:38;;;;;;;18.40;3.03;;;;;;;10.01;100.00;100061.84;5345945;26;20008;-67
2024/04/16 09:35:03;;;;;;;16.98;2.90;;;;;;;9.87;100.00;100049.63;5346123;26;20325;-67
2024/04/16 09:37:29;;;;;;;12.75;2.72;;;;;;;9.85;100.00;100051.38;5346049;26;20067;-67
2024/04/16 09:39:57;;;;;;;17.60;3.00;;;;;;;9.60;100.00;100051.50;5345806;26;20389;-71
2024/04/16 09:42:23;;;;;;;14.35;2.80;;;;;;;9.43;100.00;100063.88;5346320;26;20008;-72
2024/04/16 09:44:49;;;;;;;17.00;3.10;;;;;;;9.65;100.00;100056.75;5346180;26;20000;-72
2024/04/16 09:47:17;;;;;;;17.20;3.10;;;;;;;9.89;100.00;100076.00;5344129;26;20506;-72
2024/04/16 09:49:43;;;;;;;14.98;3.00;;;;;;;10.22;100.00;100068.75;5348494;26;20083;-72
2024/04/16 09:52:14;;;;;;;14.68;3.03;;;;;;;10.27;100.00;100074.91;5349583;26;20007;-66
2024/04/16 09:54:43;;;;;;;19.15;3.28;;;;;;;10.34;100.00;100083.69;5349335;26;20008;-67
2024/04/16 09:57:09;;;;;;;16.95;3.33;;;;;;;10.28;100.00;100081.91;5349131;26;20009;-67
2024/04/16 09:59:37;;;;;;;18.15;3.00;;;;;;;10.38;100.00;100067.81;5349288;26;19993;-67
2024/04/16 10:02:03;;;;;;;13.82;2.70;;;;;;;10.38;100.00;100073.09;5347433;26;20008;-66
2024/04/16 10:04:30;;;;;;;17.02;3.03;;;;;;;10.90;100.00;100092.06;5349137;26;19993;-66
2024/04/16 10:06:56;;;;;;;14.82;3.00;;;;;;;10.94;100.00;100083.22;5349344;26;19997;-67
2024/04/16 10:09:23;;;;;;;13.57;2.70;;;;;;;10.91;100.00;100125.56;5348811;26;20436;-71
2024/04/16 10:11:49;;;;;;;14.82;2.75;;;;;;;10.68;100.00;100084.31;5340778;26;20024;-69
2024/04/16 10:14:15;;;;;;;15.38;3.10;;;;;;;10.32;100.00;100107.44;5348771;26;20000;-71
2024/04/16 10:16:41;;;;;;;17.30;3.10;;;;;;;10.21;100.00;100115.44;5348689;26;20016;-69
2024/04/16 10:19:06;;;;;;;15.15;2.95;;;;;;;10.21;100.00;100123.34;5348591;26;19993;-67
2024/04/16 10:21:39;;;;;;;15.82;2.92;;;;;;;10.67;100.00;100119.56;5348843;26;20000;-68
2024/04/16 10:24:10;;;;;;;14.57;2.58;;;;;;;10.85;100.00;100120.31;5348489;26;19993;-67
2024/04/16 10:26:42;;;;;;;14.27;2.70;;;;;;;10.64;100.00;100133.69;5346746;26;20361;-68
2024/04/16 10:29:23;;;;;;;14.57;2.90;;;;;;;10.50;100.00;100129.38;5348641;26;20476;-67
2024/04/16 10:31:53;;;;;;;16.92;2.75;;;;;;;10.43;100.00;100141.75;5343566;26;20012;-71
2024/04/16 10:34:23;;;;;;;14.65;2.90;;;;;;;10.27;100.00;100127.72;5348747;26;20005;-67
2024/04/16 10:36:53;;;;;;;15.50;2.85;;;;;;;9.85;100.00;100140.25;5348485;26;20395;-67
2024/04/16 10:39:18;;;;;;;12.45;2.60;;;;;;;9.58;100.00;100168.47;5348447;26;20007;-67
2024/04/16 10:41:53;;;;;;;14.65;2.97;;;;;;;9.20;100.00;100177.31;5348981;26;20581;-70
2024/04/16 10:44:21;;;;;;;13.73;2.80;;;;;;;9.31;100.00;100185.25;5343057;26;20087;-69
2024/04/16 10:46:49;;;;;;;15.00;2.72;;;;;;;9.32;100.00;100186.97;5348255;26;19997;-70
2024/04/16 10:49:14;;;;;;;11.18;2.42;;;;;;;9.34;100.00;100193.16;5348659;26;20001;-72
2024/04/16 10:51:40;;;;;;;12.07;2.60;;;;;;;9.50;100.00;100186.09;5347070;26;19993;-71
2024/04/16 10:54:07;;;;;;;11.65;2.60;;;;;;;9.54;100.00;100199.28;5343583;26;20001;-66
2024/04/16 10:56:36;;;;;;;14.57;2.70;;;;;;;9.56;100.00;100186.09;5343408;26;19997;-67
2024/04/16 10:59:12;;;;;;;10.20;2.60;;;;;;;9.42;100.00;100194.00;5347876;26;20001;-66
2024/04/16 11:01:42;;;;;;;12.25;2.53;;;;;;;9.43;100.00;100204.56;5343462;26;19993;-68
2024/04/16 11:04:14;;;;;;;12.50;2.50;;;;;;;9.41;100.00;100193.13;5347947;26;20012;-67
2024/04/16 11:06:40;;;;;;;10.32;2.60;;;;;;;9.80;100.00;100202.72;5348392;26;20379;-67
2024/04/16 11:09:07;;;;;;;11.93;2.30;;;;;;;9.63;100.00;100208.06;5348211;26;20011;-69
2024/04/16 11:11:33;;;;;;;11.75;2.50;;;;;;;9.54;100.00;100216.88;5347839;26;20344;-67
2024/04/16 11:13:59;;;;;;;8.82;2.30;;;;;;;9.05;100.00;100209.84;5348313;26;20001;-67